Beatrice, NE

4:13 AM CST on December 21, 2014 (GMT -0600)
Fairview | Change Station
CLOSE
Current Station
Personal Weather Station
Location: Beatrice, NE
Elevation: 1329 ft
Nearby Weather Stations

Elev 1329 ft 40.27 °N, 96.74 °W | Updated 6 seconds ago

Overcast
Overcast
38.7 °F
Feels Like 34 °F
N
6.0
Wind Variable Wind from SE
Gusts 6.0 mph

Today
High -- | Low -- °F
--% Chance of Precip.
Yesterday
High -- | Low -- °F
Precip. -- in
7:46 AM 5:04 PM
Waning Crescent, 1% visible
Pressure 29.95 in
Visibility 7.0 miles
Clouds Overcast 700 ft
Windchill 34 °F
Dew Point 37 °F
Humidity 95%
Rainfall 0.00 in
Snow Depth Not available.
UV 0 out of 12
Pollen .10 out of 12
Air Quality Not available.
Flu Activity Not available.
METAR KBIE 210955Z AUTO 19010KT 7SM OVC007 04/03 A2995 RMK AO2 T00350027

More Conditions Fewer Conditions

Pressure 29.95 in
Visibility 7.0 miles
Clouds Overcast 700 ft
Windchill 34 °F
Dew Point 37 °F
Humidity 95%
Rainfall 0.00 in
Snow Depth Not available.
UV 0 out of 12
Pollen .10 out of 12
Air Quality Not available.
Flu Activity Not available.
METAR KBIE 210955Z AUTO 19010KT 7SM OVC007 04/03 A2995 RMK AO2 T00350027

More Conditions Fewer Conditions

10-Day Weather Forecast

Almanac

Astronomy

Dec. 21, 2014 Rise Set
Actual Time
Civil Twilight
Nautical Twilight
Astronomical Twilight
Moon
Length of Visible Light
Length of Day
Tomorrow will be .
, % of the Moon is Illuminated

Today's Extremes

State Highs State Lows

Community

WunderPhotos

Upload Photos

1,779,364 photos uploaded!

WunderBlogs® & News

Nearby

Air Quality

  Air Quality AQ Index Pollutant
Not available.

Snow Depth

Station Depth Elevation

Earthquake Activity

City Distance Mag. Time & Date
Minimum magnitude displayed is 2.5.

Coastal Water Temperatures

Place Temperature

Nearby Weather Stations